Lacey, New Jersey
Current Conditions -  °F | °C
As of 10:35 PM on Wednesday 22 Oct 2014 (Local Time) from KMJX Reporting Station
Overcast Overcast  
Wind Chill: 52°   Ceiling: 2000
Heat Index: 52°   Visibility: 6mi
Dew Point: 48°   Wind: 8mph
Humidity: 88%   Direction: 340°NNW
Pressure: 29.74"   Gusts: 18mph
Location:  39.8591°N, 74.2817°W
Report Text: KMJX 230235Z AUTO 34007G16KT 6SM BKN020 OVC027 11/09 A2974 RMK AO1
Loading
Personal Weather Stations






























Interactive Weather Map New forecast layout! Learn more

10-Day Weather Forecast

Advertisements
Track Severe Weather on mobile